Barefoot — WDF2911 — position and weather

sailwx.info

Track history (hours):
 
Tides and Currents Weather Stations Pressure Air Temp Water Temp Dewpoint Dewpoint Depression Visibility Wind Speed Wind Dir Waves Ship Positions

Barefoot

Owner: Content, David W, Seattle, WA. More information available from US FCC via Universal Licensing System and Coast Guard Vessel Documentation Center.

Last reported at 2016-Feb-07 12:20 UTC. Time now 2016-Feb-08 23:14 UTC.
Position S 39°27' E 147°20'.

Length 13 m.

Type: Sailing vessel. MMSI: 367433390.

Date/timePositionNaut miles runAvg speedWind from/ knotsBaromVisibWave heightAir tempDewpointWater temp
2016-Feb-07 12:20S 39°27' E 147°20'92 4.2
2016-Feb-06 14:30S 38°39' E 149°01'50 7.2
2016-Feb-06 07:30S 38°05' E 149°48'7 7.2
2016-Feb-06 06:33S 37°59' E 149°52'7 7.3
2016-Feb-06 05:33S 37°52' E 149°56'7 7.1
2016-Feb-06 04:32S 37°46' E 149°60'7 7.5
2016-Feb-06 03:33S 37°39' E 150°03'7 7.2
2016-Feb-06 02:33S 37°31' E 150°03'6 5.7
2016-Feb-06 01:32S 37°26' E 150°04'5 4.8
2016-Feb-06 00:33S 37°21' E 150°04'5 5.1
2016-Feb-05 23:29S 37°16' E 150°04'4 4.5
2016-Feb-05 22:33S 37°11' E 150°03'5 4.9
2016-Feb-05 21:33S 37°07' E 150°00'4 3.3
2016-Feb-05 20:24S 37°07' E 149°56'0 0.0
2016-Feb-05 19:33S 37°07' E 149°56'0 0.0
2016-Feb-05 18:33S 37°07' E 149°56'0 0.0
2016-Feb-05 17:33S 37°07' E 149°56'0 0.0
2016-Feb-05 16:21S 37°07' E 149°56'0 0.1
2016-Feb-05 15:33S 37°07' E 149°56'0 0.0
2016-Feb-05 14:33S 37°07' E 149°56'0 0.0
2016-Feb-05 13:30S 37°07' E 149°56'0 0.0
2016-Feb-05 12:27S 37°07' E 149°56'0 0.0
2016-Feb-05 11:30S 37°07' E 149°56'0 0.0
2016-Feb-05 10:27S 37°07' E 149°56'0 0.0
2016-Feb-05 09:30S 37°07' E 149°56'0 0.0
2016-Feb-05 08:27S 37°07' E 149°56'0 0.0
2016-Feb-05 07:33S 37°07' E 149°56'0 0.0
2016-Feb-05 06:30S 37°07' E 149°56'0 0.0
2016-Feb-05 05:33S 37°07' E 149°56'0 0.0
2016-Feb-05 04:27S 37°07' E 149°56'0 0.0
2016-Feb-05 03:33S 37°07' E 149°56'0 0.0
2016-Feb-05 02:27S 37°07' E 149°56'0 0.0
2016-Feb-05 01:27S 37°07' E 149°56'0 0.0
2016-Feb-05 00:33S 37°07' E 149°56'0 0.0
2016-Feb-04 23:27S 37°07' E 149°56'0 0.0
2016-Feb-04 22:24S 37°07' E 149°56'0 0.0
2016-Feb-04 21:09S 37°07' E 149°56'0 0.0
2016-Feb-04 20:21S 37°07' E 149°56'0 0.0
2016-Feb-04 19:27S 37°07' E 149°56'0 0.0
2016-Feb-04 18:30S 37°07' E 149°56'0 0.0
2016-Feb-04 17:24S 37°07' E 149°56'0 0.0
2016-Feb-04 15:24S 37°07' E 149°56'0 0.0
2016-Feb-04 14:30S 37°07' E 149°56'0 0.0
2016-Feb-04 13:18S 37°07' E 149°56'0 0.0
2016-Feb-04 12:15S 37°07' E 149°56'0 0.1
2016-Feb-04 11:33S 37°07' E 149°56'0 0.0
2016-Feb-04 10:33S 37°07' E 149°56'0 0.0
2016-Feb-04 09:33S 37°07' E 149°56'0 0.0
2016-Feb-04 08:30S 37°07' E 149°56'0 0.0
2016-Feb-04 07:27S 37°07' E 149°56'0 0.0
2016-Feb-04 06:33S 37°07' E 149°56'0 0.0
2016-Feb-04 05:33S 37°07' E 149°56'0 0.0
2016-Feb-04 04:30S 37°07' E 149°56'0 0.0
2016-Feb-04 03:30S 37°07' E 149°56'0 0.0
2016-Feb-04 02:33S 37°07' E 149°56'0 0.0
2016-Feb-04 01:09S 37°07' E 149°56'0 0.0
2016-Feb-04 00:06S 37°07' E 149°56'0 0.1
2016-Feb-03 23:09S 37°07' E 149°56'0 0.0
2016-Feb-03 22:33S 37°07' E 149°56'0 0.0
2016-Feb-03 21:33S 37°07' E 149°56'0 0.0
2016-Feb-03 20:30S 37°07' E 149°56'0 0.0
2016-Feb-03 19:30S 37°07' E 149°56'0 0.0
2016-Feb-03 18:30S 37°07' E 149°56'0 0.0
2016-Feb-03 17:27S 37°07' E 149°56'0 0.0
2016-Feb-03 16:24S 37°07' E 149°56'0 0.0
2016-Feb-03 15:33S 37°07' E 149°56'0 0.0
2016-Feb-03 12:21S 37°07' E 149°56'0 0.0
2016-Feb-03 11:18S 37°07' E 149°56'0 0.0
2016-Feb-03 10:33S 37°07' E 149°56'0 0.0
2016-Feb-03 09:30S 37°07' E 149°56'0 0.0
2016-Feb-03 08:33S 37°07' E 149°56'0 0.0
2016-Feb-03 07:33S 37°07' E 149°56'0 0.0
2016-Feb-03 06:30S 37°07' E 149°56'0 0.0
2016-Feb-03 05:30S 37°07' E 149°56'0 0.0
2016-Feb-03 04:27S 37°07' E 149°56'0 0.0
2016-Feb-03 03:33S 37°07' E 149°56'0 0.0
2016-Feb-03 02:24S 37°07' E 149°56'0 0.0
2016-Feb-03 01:30S 37°07' E 149°56'1 1.3
2016-Feb-03 00:33S 37°05' E 149°55'1 0.5
2016-Feb-02 22:30S 37°04' E 149°54'0 0.0
2016-Feb-02 21:33S 37°04' E 149°54'0 0.0
2016-Feb-02 20:33S 37°04' E 149°54'0 0.0
2016-Feb-02 19:33S 37°04' E 149°54'0 0.0
2016-Feb-02 18:27S 37°04' E 149°54'0 0.0
2016-Feb-02 17:33S 37°04' E 149°54'0 0.0
2016-Feb-02 16:33S 37°04' E 149°54'0 0.0
2016-Feb-02 15:27S 37°04' E 149°54'0 0.0
2016-Feb-02 14:33S 37°04' E 149°54'0 0.0
2016-Feb-02 13:24S 37°04' E 149°54'0 0.0
2016-Feb-02 12:33S 37°04' E 149°54'0 0.0
2016-Feb-02 11:30S 37°04' E 149°54'0 0.0
2016-Feb-02 10:30S 37°04' E 149°54'0 0.0
2016-Feb-02 09:25S 37°04' E 149°54'0 0.0
2016-Feb-02 08:28S 37°04' E 149°54'0 0.0
2016-Feb-02 07:28S 37°04' E 149°54'0 0.0
2016-Feb-02 06:22S 37°04' E 149°54'0 0.1
2016-Feb-02 05:28S 37°04' E 149°54'0 0.0
2016-Feb-02 04:31S 37°04' E 149°54'0 0.0
2016-Feb-02 03:31S 37°04' E 149°54'0 0.0
2016-Feb-02 02:31S 37°04' E 149°54'2 2.0
2016-Feb-02 01:33S 37°06' E 149°55'0 0.1
2016-Feb-01 22:30S 37°06' E 149°56'0 0.0
2016-Feb-01 21:27S 37°06' E 149°56'0 0.0
2016-Feb-01 20:30S 37°06' E 149°56'0 0.0
2016-Feb-01 19:33S 37°06' E 149°56'0 0.0
2016-Feb-01 18:33S 37°06' E 149°56'0 0.0
2016-Feb-01 17:18S 37°06' E 149°56'0 0.0
2016-Feb-01 16:33S 37°06' E 149°56'0 0.0
2016-Feb-01 15:30S 37°07' E 149°56'0 0.0
2016-Feb-01 14:33S 37°07' E 149°56'0 0.0
2016-Feb-01 13:27S 37°06' E 149°56'0 0.0
2016-Feb-01 12:24S 37°06' E 149°56'0 0.0
2016-Feb-01 11:33S 37°06' E 149°56'0 0.0
2016-Feb-01 10:33S 37°06' E 149°56'0 0.0
2016-Feb-01 09:33S 37°06' E 149°56'0 0.0
2016-Feb-01 08:30S 37°07' E 149°56'0 0.0
2016-Feb-01 07:33S 37°07' E 149°56'0 0.0
2016-Feb-01 06:33S 37°06' E 149°56'0 0.0
2016-Feb-01 05:15S 37°06' E 149°56'0 0.0
2016-Feb-01 04:27S 37°07' E 149°56'0 0.0
2016-Feb-01 03:27S 37°06' E 149°56'0 0.0
2016-Feb-01 02:33S 37°07' E 149°56'0 0.0
2016-Feb-01 01:33S 37°07' E 149°56'2 0.1
2016-Jan-31 01:32S 37°04' E 149°54'0 0.0
2016-Jan-31 00:32S 37°04' E 149°54'0 0.0
2016-Jan-30 05:33S 37°04' E 149°54'0 0.0
2016-Jan-30 04:33S 37°04' E 149°54'0 0.0
2016-Jan-30 03:33S 37°04' E 149°54'0 0.0
2016-Jan-30 02:33S 37°04' E 149°54'0 0.0
2016-Jan-30 01:33S 37°04' E 149°54'0 0.0
2016-Jan-30 00:24S 37°04' E 149°54'0 0.0
2016-Jan-29 23:33S 37°04' E 149°54'0 0.0
2016-Jan-29 12:21S 37°04' E 149°54'0 0.1
2016-Jan-29 11:30S 37°04' E 149°54'0 0.0
2016-Jan-29 10:33S 37°04' E 149°54'0 0.0
2016-Jan-29 09:30S 37°04' E 149°54'0 0.0
2016-Jan-29 08:33S 37°04' E 149°54'0 0.0
2016-Jan-29 07:30S 37°04' E 149°54'0 0.1
2016-Jan-29 06:33S 37°04' E 149°54'0 0.0
2016-Jan-29 05:27S 37°04' E 149°54'0 0.0
2016-Jan-29 04:33S 37°04' E 149°54'0 0.0
2016-Jan-29 03:33S 37°04' E 149°54'0 0.0
2016-Jan-29 02:33S 37°04' E 149°54'0 0.0
2016-Jan-29 01:33S 37°04' E 149°54'0 0.0
2016-Jan-29 00:33S 37°04' E 149°54'0 0.0
2016-Jan-28 23:33S 37°04' E 149°54'0 0.0
2016-Jan-28 22:33S 37°04' E 149°54'0 0.0
2016-Jan-28 21:33S 37°04' E 149°54'0 0.0
2016-Jan-28 20:24S 37°04' E 149°54'0 0.0
2016-Jan-28 19:33S 37°04' E 149°54'0 0.0
2016-Jan-28 18:30S 37°04' E 149°54'0 0.0
2016-Jan-28 17:33S 37°04' E 149°54'0 0.0
2016-Jan-28 16:33S 37°04' E 149°54'0 0.0
2016-Jan-28 15:31S 37°04' E 149°54'0 0.0
2016-Jan-28 14:31S 37°04' E 149°54'0 0.0
2016-Jan-28 13:31S 37°04' E 149°54'0 0.0
2016-Jan-28 12:31S 37°04' E 149°54'  
Track history (hours):
 
Tides and Currents Weather Stations Pressure Air Temp Water Temp Dewpoint Dewpoint Depression Visibility Wind Speed Wind Dir Waves Ship Positions

Barefoot

Owner: Content, David W, Seattle, WA. More information available from US FCC via Universal Licensing System and Coast Guard Vessel Documentation Center.

Last reported at 2016-Feb-07 12:20 UTC. Time now 2016-Feb-08 23:14 UTC.
Position S 39°27' E 147°20'.

Length 13 m.

Type: Sailing vessel. MMSI: 367433390.

Date/timePositionNaut miles runAvg speedWind from/ knotsBaromVisibWave heightAir tempDewpointWater temp
2016-Feb-07 12:20S 39°27' E 147°20'92 4.2
2016-Feb-06 14:30S 38°39' E 149°01'50 7.2
2016-Feb-06 07:30S 38°05' E 149°48'7 7.2
2016-Feb-06 06:33S 37°59' E 149°52'7 7.3
2016-Feb-06 05:33S 37°52' E 149°56'7 7.1
2016-Feb-06 04:32S 37°46' E 149°60'7 7.5
2016-Feb-06 03:33S 37°39' E 150°03'7 7.2
2016-Feb-06 02:33S 37°31' E 150°03'6 5.7
2016-Feb-06 01:32S 37°26' E 150°04'5 4.8
2016-Feb-06 00:33S 37°21' E 150°04'5 5.1
2016-Feb-05 23:29S 37°16' E 150°04'4 4.5
2016-Feb-05 22:33S 37°11' E 150°03'5 4.9
2016-Feb-05 21:33S 37°07' E 150°00'4 3.3
2016-Feb-05 20:24S 37°07' E 149°56'0 0.0
2016-Feb-05 19:33S 37°07' E 149°56'0 0.0
2016-Feb-05 18:33S 37°07' E 149°56'0 0.0
2016-Feb-05 17:33S 37°07' E 149°56'0 0.0
2016-Feb-05 16:21S 37°07' E 149°56'0 0.1
2016-Feb-05 15:33S 37°07' E 149°56'0 0.0
2016-Feb-05 14:33S 37°07' E 149°56'0 0.0
2016-Feb-05 13:30S 37°07' E 149°56'0 0.0
2016-Feb-05 12:27S 37°07' E 149°56'0 0.0
2016-Feb-05 11:30S 37°07' E 149°56'0 0.0
2016-Feb-05 10:27S 37°07' E 149°56'0 0.0
2016-Feb-05 09:30S 37°07' E 149°56'0 0.0
2016-Feb-05 08:27S 37°07' E 149°56'0 0.0
2016-Feb-05 07:33S 37°07' E 149°56'0 0.0
2016-Feb-05 06:30S 37°07' E 149°56'0 0.0
2016-Feb-05 05:33S 37°07' E 149°56'0 0.0
2016-Feb-05 04:27S 37°07' E 149°56'0 0.0
2016-Feb-05 03:33S 37°07' E 149°56'0 0.0
2016-Feb-05 02:27S 37°07' E 149°56'0 0.0
2016-Feb-05 01:27S 37°07' E 149°56'0 0.0
2016-Feb-05 00:33S 37°07' E 149°56'0 0.0
2016-Feb-04 23:27S 37°07' E 149°56'0 0.0
2016-Feb-04 22:24S 37°07' E 149°56'0 0.0
2016-Feb-04 21:09S 37°07' E 149°56'0 0.0
2016-Feb-04 20:21S 37°07' E 149°56'0 0.0
2016-Feb-04 19:27S 37°07' E 149°56'0 0.0
2016-Feb-04 18:30S 37°07' E 149°56'0 0.0
2016-Feb-04 17:24S 37°07' E 149°56'0 0.0
2016-Feb-04 15:24S 37°07' E 149°56'0 0.0
2016-Feb-04 14:30S 37°07' E 149°56'0 0.0
2016-Feb-04 13:18S 37°07' E 149°56'0 0.0
2016-Feb-04 12:15S 37°07' E 149°56'0 0.1
2016-Feb-04 11:33S 37°07' E 149°56'0 0.0
2016-Feb-04 10:33S 37°07' E 149°56'0 0.0
2016-Feb-04 09:33S 37°07' E 149°56'0 0.0
2016-Feb-04 08:30S 37°07' E 149°56'0 0.0
2016-Feb-04 07:27S 37°07' E 149°56'0 0.0
2016-Feb-04 06:33S 37°07' E 149°56'0 0.0
2016-Feb-04 05:33S 37°07' E 149°56'0 0.0
2016-Feb-04 04:30S 37°07' E 149°56'0 0.0
2016-Feb-04 03:30S 37°07' E 149°56'0 0.0
2016-Feb-04 02:33S 37°07' E 149°56'0 0.0
2016-Feb-04 01:09S 37°07' E 149°56'0 0.0
2016-Feb-04 00:06S 37°07' E 149°56'0 0.1
2016-Feb-03 23:09S 37°07' E 149°56'0 0.0
2016-Feb-03 22:33S 37°07' E 149°56'0 0.0
2016-Feb-03 21:33S 37°07' E 149°56'0 0.0
2016-Feb-03 20:30S 37°07' E 149°56'0 0.0
2016-Feb-03 19:30S 37°07' E 149°56'0 0.0
2016-Feb-03 18:30S 37°07' E 149°56'0 0.0
2016-Feb-03 17:27S 37°07' E 149°56'0 0.0
2016-Feb-03 16:24S 37°07' E 149°56'0 0.0
2016-Feb-03 15:33S 37°07' E 149°56'0 0.0
2016-Feb-03 12:21S 37°07' E 149°56'0 0.0
2016-Feb-03 11:18S 37°07' E 149°56'0 0.0
2016-Feb-03 10:33S 37°07' E 149°56'0 0.0
2016-Feb-03 09:30S 37°07' E 149°56'0 0.0
2016-Feb-03 08:33S 37°07' E 149°56'0 0.0
2016-Feb-03 07:33S 37°07' E 149°56'0 0.0
2016-Feb-03 06:30S 37°07' E 149°56'0 0.0
2016-Feb-03 05:30S 37°07' E 149°56'0 0.0
2016-Feb-03 04:27S 37°07' E 149°56'0 0.0
2016-Feb-03 03:33S 37°07' E 149°56'0 0.0
2016-Feb-03 02:24S 37°07' E 149°56'0 0.0
2016-Feb-03 01:30S 37°07' E 149°56'1 1.3
2016-Feb-03 00:33S 37°05' E 149°55'1 0.5
2016-Feb-02 22:30S 37°04' E 149°54'0 0.0
2016-Feb-02 21:33S 37°04' E 149°54'0 0.0
2016-Feb-02 20:33S 37°04' E 149°54'0 0.0
2016-Feb-02 19:33S 37°04' E 149°54'0 0.0
2016-Feb-02 18:27S 37°04' E 149°54'0 0.0
2016-Feb-02 17:33S 37°04' E 149°54'0 0.0
2016-Feb-02 16:33S 37°04' E 149°54'0 0.0
2016-Feb-02 15:27S 37°04' E 149°54'0 0.0
2016-Feb-02 14:33S 37°04' E 149°54'0 0.0
2016-Feb-02 13:24S 37°04' E 149°54'0 0.0
2016-Feb-02 12:33S 37°04' E 149°54'0 0.0
2016-Feb-02 11:30S 37°04' E 149°54'0 0.0
2016-Feb-02 10:30S 37°04' E 149°54'0 0.0
2016-Feb-02 09:25S 37°04' E 149°54'0 0.0
2016-Feb-02 08:28S 37°04' E 149°54'0 0.0
2016-Feb-02 07:28S 37°04' E 149°54'0 0.0
2016-Feb-02 06:22S 37°04' E 149°54'0 0.1
2016-Feb-02 05:28S 37°04' E 149°54'0 0.0
2016-Feb-02 04:31S 37°04' E 149°54'0 0.0
2016-Feb-02 03:31S 37°04' E 149°54'0 0.0
2016-Feb-02 02:31S 37°04' E 149°54'2 2.0
2016-Feb-02 01:33S 37°06' E 149°55'0 0.1
2016-Feb-01 22:30S 37°06' E 149°56'0 0.0
2016-Feb-01 21:27S 37°06' E 149°56'0 0.0
2016-Feb-01 20:30S 37°06' E 149°56'0 0.0
2016-Feb-01 19:33S 37°06' E 149°56'0 0.0
2016-Feb-01 18:33S 37°06' E 149°56'0 0.0
2016-Feb-01 17:18S 37°06' E 149°56'0 0.0
2016-Feb-01 16:33S 37°06' E 149°56'0 0.0
2016-Feb-01 15:30S 37°07' E 149°56'0 0.0
2016-Feb-01 14:33S 37°07' E 149°56'0 0.0
2016-Feb-01 13:27S 37°06' E 149°56'0 0.0
2016-Feb-01 12:24S 37°06' E 149°56'0 0.0
2016-Feb-01 11:33S 37°06' E 149°56'0 0.0
2016-Feb-01 10:33S 37°06' E 149°56'0 0.0
2016-Feb-01 09:33S 37°06' E 149°56'0 0.0
2016-Feb-01 08:30S 37°07' E 149°56'0 0.0
2016-Feb-01 07:33S 37°07' E 149°56'0 0.0
2016-Feb-01 06:33S 37°06' E 149°56'0 0.0
2016-Feb-01 05:15S 37°06' E 149°56'0 0.0
2016-Feb-01 04:27S 37°07' E 149°56'0 0.0
2016-Feb-01 03:27S 37°06' E 149°56'0 0.0
2016-Feb-01 02:33S 37°07' E 149°56'0 0.0
2016-Feb-01 01:33S 37°07' E 149°56'2 0.1
2016-Jan-31 01:32S 37°04' E 149°54'0 0.0
2016-Jan-31 00:32S 37°04' E 149°54'0 0.0
2016-Jan-30 05:33S 37°04' E 149°54'0 0.0
2016-Jan-30 04:33S 37°04' E 149°54'0 0.0
2016-Jan-30 03:33S 37°04' E 149°54'0 0.0
2016-Jan-30 02:33S 37°04' E 149°54'0 0.0
2016-Jan-30 01:33S 37°04' E 149°54'0 0.0
2016-Jan-30 00:24S 37°04' E 149°54'0 0.0
2016-Jan-29 23:33S 37°04' E 149°54'0 0.0
2016-Jan-29 12:21S 37°04' E 149°54'0 0.1
2016-Jan-29 11:30S 37°04' E 149°54'0 0.0
2016-Jan-29 10:33S 37°04' E 149°54'0 0.0
2016-Jan-29 09:30S 37°04' E 149°54'0 0.0
2016-Jan-29 08:33S 37°04' E 149°54'0 0.0
2016-Jan-29 07:30S 37°04' E 149°54'0 0.1
2016-Jan-29 06:33S 37°04' E 149°54'0 0.0
2016-Jan-29 05:27S 37°04' E 149°54'0 0.0
2016-Jan-29 04:33S 37°04' E 149°54'0 0.0
2016-Jan-29 03:33S 37°04' E 149°54'0 0.0
2016-Jan-29 02:33S 37°04' E 149°54'0 0.0
2016-Jan-29 01:33S 37°04' E 149°54'0 0.0
2016-Jan-29 00:33S 37°04' E 149°54'0 0.0
2016-Jan-28 23:33S 37°04' E 149°54'0 0.0
2016-Jan-28 22:33S 37°04' E 149°54'0 0.0
2016-Jan-28 21:33S 37°04' E 149°54'0 0.0
2016-Jan-28 20:24S 37°04' E 149°54'0 0.0
2016-Jan-28 19:33S 37°04' E 149°54'0 0.0
2016-Jan-28 18:30S 37°04' E 149°54'0 0.0
2016-Jan-28 17:33S 37°04' E 149°54'0 0.0
2016-Jan-28 16:33S 37°04' E 149°54'0 0.0
2016-Jan-28 15:31S 37°04' E 149°54'0 0.0
2016-Jan-28 14:31S 37°04' E 149°54'0 0.0
2016-Jan-28 13:31S 37°04' E 149°54'0 0.0
2016-Jan-28 12:31S 37°04' E 149°54'  

Dump ship's entire track history